Enter the Airport ICAO Code

Search by Airport or City

Current Weather

FIMP | Sir Seewoosagur Ramgoolam International Airport

Plaine Magnien, Mauritius

Last Update 9 Minutes Ago

Rain Shower

Temperature of 22 ºC

Moderate Winds from East

Temperature

22 ºC

Dew Point Temperature

20 ºC

Relative Humidity

88.5 %

Wind Direction

East (090º, Without Significant Variations)

Wind Velocity

28 km/h (15 kt)

Gusts

None

Visibility

Reduced to 6.0 Kilometers

Sea Level Pressure

1017 hPa (Hectopascals)

Layers of Clouds

5% to 30% of Sky Covered from 244 mts (800 ft) Above Ground Level.

60% to 90% of Sky Covered from 427 mts (1400 ft) Above Ground Level.

METAR FIMP 131200Z 09015KT 6000 VCSH FEW008 BKN014 22/20 Q1017

Weather Forecast

FIMP | Sir Seewoosagur Ramgoolam International Airport

Plaine Magnien, Mauritius

Forecast valid for the next 30 Hours

From now on it is expected:

Moderate Winds from East with Gusts

From now on it is expected 4 hours with intermittent periods of:

Light Rain

Maximum Temperature

No Data

Minimum Temperature

No Data

TAF FIMP 131130Z 1312/1418 10015G25KT 9999 TEMPO 1312/1316 7000 -SHRA FEW010 BKN015